Flatwood, Texas
Current Conditions -  °F | °C
As of 5:00 AM on Sunday 23 Nov 2014 (Local Time) from KTYR Reporting Station
Light Rain Light Rain  
Wind Chill: 61°   Ceiling: 900
Heat Index: 61°   Visibility: 10mi
Dew Point: 58°   Wind: 6mph
Humidity: 90%   Direction: 270°W
Pressure: 29.62"   Gusts: NA
Location:  32.416°N, 95.6606°W
Report Text: KTYR 231100Z AUTO 27005KT 10SM -RA OVC009 16/14 A2962 RMK AO2 P0000 T01610144
Loading
Personal Weather Stations






























Interactive Weather Map New forecast layout! Learn more

10-Day Weather Forecast

Advertisements
Track Severe Weather on mobile